createdAt,value
2018-08-18T00:00:58.172Z,6.00
2018-08-18T00:01:58.235Z,6.50
2018-08-18T00:02:58.275Z,7.20
2018-08-18T00:03:59.585Z,7.30
2018-08-18T00:04:58.126Z,7.30
2018-08-18T00:05:58.150Z,7.30
2018-08-18T00:06:58.154Z,7.70
2018-08-18T00:07:58.077Z,7.60
2018-08-18T00:08:58.161Z,7.50
2018-08-18T00:09:58.155Z,8.10
2018-08-18T00:10:58.130Z,7.70
2018-08-18T00:11:58.142Z,7.80
2018-08-18T00:12:58.207Z,8.40
2018-08-18T00:13:58.137Z,8.70
2018-08-18T00:14:58.095Z,8.30
2018-08-18T00:15:58.196Z,7.80
2018-08-18T00:16:58.171Z,7.80
2018-08-18T00:17:58.141Z,8.30
2018-08-18T00:18:58.160Z,8.00
2018-08-18T00:19:58.187Z,8.30
2018-08-18T00:20:58.136Z,8.50
2018-08-18T00:21:58.143Z,7.70
2018-08-18T00:22:58.149Z,7.70
2018-08-18T00:23:58.129Z,7.60
2018-08-18T00:24:58.167Z,8.10
2018-08-18T00:25:58.143Z,8.00
2018-08-18T00:26:58.176Z,7.80
2018-08-18T00:27:58.204Z,8.10
2018-08-18T00:28:58.165Z,8.40
2018-08-18T00:29:58.157Z,8.20
2018-08-18T00:30:58.186Z,8.70
2018-08-18T00:31:58.185Z,8.30
2018-08-18T00:32:58.243Z,8.10
2018-08-18T00:33:58.162Z,7.50
2018-08-18T00:34:58.196Z,7.10
2018-08-18T00:35:58.178Z,7.20
2018-08-18T00:36:58.191Z,7.10
2018-08-18T00:37:58.217Z,6.80
2018-08-18T00:38:58.196Z,7.70
2018-08-18T00:39:58.196Z,7.50
2018-08-18T00:40:58.194Z,7.60
2018-08-18T00:41:58.244Z,7.30
2018-08-18T00:42:58.261Z,7.00
2018-08-18T00:43:58.168Z,7.20
2018-08-18T00:44:58.204Z,7.80
2018-08-18T00:45:58.245Z,7.90
2018-08-18T00:46:58.276Z,8.40
2018-08-18T00:47:58.251Z,7.60
2018-08-18T00:48:58.256Z,8.30
2018-08-18T00:49:58.260Z,8.40
2018-08-18T00:50:58.188Z,8.30
2018-08-18T00:51:58.227Z,8.20
2018-08-18T00:52:58.236Z,8.40
2018-08-18T00:53:58.255Z,8.90
2018-08-18T00:54:58.236Z,8.60
2018-08-18T00:55:58.221Z,8.80
2018-08-18T00:56:58.221Z,9.60
2018-08-18T00:57:58.228Z,9.40
2018-08-18T00:58:58.205Z,9.20
2018-08-18T00:59:58.319Z,9.20
2018-08-18T01:00:58.240Z,9.50
2018-08-18T01:01:58.371Z,9.50
2018-08-18T01:02:58.248Z,10.10
2018-08-18T01:03:58.285Z,10.10
2018-08-18T01:04:58.270Z,10.00
2018-08-18T01:05:58.285Z,10.70
2018-08-18T01:06:58.350Z,10.50
2018-08-18T01:07:58.256Z,9.90
2018-08-18T01:08:58.380Z,10.10
2018-08-18T01:09:58.258Z,10.30
2018-08-18T01:10:58.322Z,11.20
2018-08-18T01:11:58.320Z,11.30
2018-08-18T01:12:58.390Z,10.90
2018-08-18T01:13:58.652Z,11.20
2018-08-18T01:14:58.502Z,12.10
2018-08-18T01:15:58.311Z,11.50
2018-08-18T01:16:58.285Z,11.80
2018-08-18T01:17:58.294Z,10.50
2018-08-18T01:18:58.298Z,11.70
2018-08-18T01:19:58.336Z,12.00
2018-08-18T01:20:58.288Z,12.00
2018-08-18T01:21:58.283Z,11.90
2018-08-18T01:22:58.277Z,12.40
2018-08-18T01:23:58.253Z,11.40
2018-08-18T01:24:58.314Z,12.00
2018-08-18T01:25:58.264Z,11.20
2018-08-18T01:26:58.310Z,11.40
2018-08-18T01:27:58.395Z,11.60
2018-08-18T01:28:58.311Z,11.70
2018-08-18T01:29:58.305Z,12.10
2018-08-18T01:30:58.324Z,11.70
2018-08-18T01:31:58.307Z,12.20
2018-08-18T01:32:58.326Z,12.30
2018-08-18T01:33:58.474Z,12.40
2018-08-18T01:34:58.332Z,12.90
2018-08-18T01:35:58.345Z,12.40
2018-08-18T01:36:58.374Z,11.90
2018-08-18T01:37:58.326Z,12.70
2018-08-18T01:38:58.329Z,12.60
2018-08-18T01:39:58.303Z,12.00
2018-08-18T01:40:58.389Z,12.40
2018-08-18T01:41:58.376Z,11.70
2018-08-18T01:42:58.306Z,11.80
2018-08-18T01:43:58.337Z,12.20
2018-08-18T01:44:58.308Z,13.00
2018-08-18T01:45:58.317Z,12.30
2018-08-18T01:46:58.311Z,13.00
2018-08-18T01:47:58.342Z,13.50
2018-08-18T01:48:58.340Z,12.70
2018-08-18T01:49:58.372Z,12.20
2018-08-18T01:50:58.310Z,13.20
2018-08-18T01:51:58.407Z,12.50
2018-08-18T01:52:58.360Z,12.70
2018-08-18T01:53:58.332Z,12.90
2018-08-18T01:54:58.394Z,12.80
2018-08-18T01:55:58.354Z,12.60
2018-08-18T01:56:58.318Z,13.40
2018-08-18T01:57:58.410Z,13.30
2018-08-18T01:58:58.391Z,13.00
2018-08-18T01:59:58.400Z,13.50
2018-08-18T02:00:58.384Z,13.30
2018-08-18T02:01:58.361Z,12.40
2018-08-18T02:02:58.357Z,13.50
2018-08-18T02:03:58.406Z,13.10
2018-08-18T02:04:58.417Z,12.80
2018-08-18T02:05:58.412Z,13.10
2018-08-18T02:06:58.367Z,13.70
2018-08-18T02:07:58.413Z,14.00
2018-08-18T02:08:58.491Z,14.10
2018-08-18T02:09:58.370Z,14.40
2018-08-18T02:10:58.458Z,14.70
2018-08-18T02:11:58.592Z,14.50
2018-08-18T02:12:58.943Z,14.50
2018-08-18T02:13:58.409Z,13.70
2018-08-18T02:14:58.382Z,14.10
2018-08-18T02:15:58.432Z,14.40
2018-08-18T02:16:58.451Z,13.40
2018-08-18T02:17:58.456Z,14.00
2018-08-18T02:18:58.401Z,14.70
2018-08-18T02:19:58.577Z,14.60
2018-08-18T02:20:58.435Z,14.50
2018-08-18T02:21:58.530Z,13.70
2018-08-18T02:22:59.447Z,14.50
2018-08-18T02:23:58.417Z,14.50
2018-08-18T02:24:58.379Z,14.90
2018-08-18T02:25:58.440Z,14.70
2018-08-18T02:26:58.474Z,14.70
2018-08-18T02:27:58.412Z,14.70
2018-08-18T02:28:58.438Z,14.80
2018-08-18T02:29:58.450Z,14.70
2018-08-18T02:30:58.450Z,14.70
2018-08-18T02:31:58.504Z,14.40
2018-08-18T02:32:58.505Z,14.30
2018-08-18T02:33:58.439Z,15.50
2018-08-18T02:34:58.466Z,15.00
2018-08-18T02:35:58.446Z,14.90
2018-08-18T02:36:58.442Z,15.80
2018-08-18T02:37:58.451Z,16.30
2018-08-18T02:38:58.467Z,16.70
2018-08-18T02:39:58.532Z,15.40
2018-08-18T02:40:58.469Z,15.30
2018-08-18T02:41:58.413Z,16.00
2018-08-18T02:42:58.478Z,14.90
2018-08-18T02:43:58.422Z,15.70
2018-08-18T02:44:58.492Z,14.60
2018-08-18T02:45:58.504Z,13.80
2018-08-18T02:46:58.501Z,13.30
2018-08-18T02:47:58.492Z,12.60
2018-08-18T02:48:58.509Z,12.60
2018-08-18T02:49:58.519Z,12.60
2018-08-18T02:50:58.452Z,12.50
2018-08-18T02:51:58.528Z,12.30
2018-08-18T02:52:58.469Z,12.50
2018-08-18T02:53:58.505Z,12.20
2018-08-18T02:54:58.549Z,12.80
2018-08-18T02:55:58.496Z,12.70
2018-08-18T02:56:58.495Z,12.80
2018-08-18T02:57:58.514Z,12.80
2018-08-18T02:58:58.534Z,13.60
2018-08-18T02:59:58.599Z,12.60
2018-08-18T03:00:58.510Z,12.30
2018-08-18T03:01:58.478Z,12.60
2018-08-18T03:02:58.459Z,12.50
2018-08-18T03:03:58.504Z,13.00
2018-08-18T03:04:58.480Z,13.70
2018-08-18T03:05:58.564Z,13.70
2018-08-18T03:06:58.525Z,14.70
2018-08-18T03:07:58.577Z,14.20
2018-08-18T03:08:58.477Z,13.30
2018-08-18T03:09:58.499Z,14.10
2018-08-18T03:10:58.508Z,13.90
2018-08-18T03:11:58.512Z,12.80
2018-08-18T03:12:58.581Z,13.30
2018-08-18T03:13:58.586Z,12.50
2018-08-18T03:14:58.526Z,12.00
2018-08-18T03:15:58.693Z,11.90
2018-08-18T03:16:58.543Z,12.20
2018-08-18T03:17:58.534Z,13.00
2018-08-18T03:18:58.548Z,12.80
2018-08-18T03:19:58.562Z,12.30
2018-08-18T03:20:58.574Z,12.60
2018-08-18T03:21:58.595Z,12.70
2018-08-18T03:22:58.550Z,11.70
2018-08-18T03:23:58.566Z,12.30
2018-08-18T03:24:58.577Z,12.40
2018-08-18T03:25:58.506Z,12.00
2018-08-18T03:26:58.578Z,11.50
2018-08-18T03:27:58.535Z,12.40
2018-08-18T03:28:58.527Z,12.40
2018-08-18T03:29:58.546Z,12.40
2018-08-18T03:30:58.570Z,12.50
2018-08-18T03:31:58.540Z,12.40
2018-08-18T03:32:58.559Z,12.70
2018-08-18T03:33:58.537Z,12.90
2018-08-18T03:34:58.590Z,12.80
2018-08-18T03:35:58.570Z,12.50
2018-08-18T03:36:58.562Z,13.00
2018-08-18T03:37:58.546Z,13.10
2018-08-18T03:38:58.693Z,12.90
2018-08-18T03:39:58.589Z,12.80
2018-08-18T03:40:58.577Z,12.60
2018-08-18T03:41:59.473Z,13.00
2018-08-18T03:42:58.600Z,13.40
2018-08-18T03:43:58.547Z,13.60
2018-08-18T03:44:58.611Z,13.20
2018-08-18T03:45:58.554Z,13.00
2018-08-18T03:46:58.683Z,12.70
2018-08-18T03:47:58.616Z,13.90
2018-08-18T03:48:58.561Z,13.80
2018-08-18T03:49:58.588Z,13.60
2018-08-18T03:50:58.603Z,14.30
2018-08-18T03:51:58.636Z,13.00
2018-08-18T03:52:58.612Z,14.00
2018-08-18T03:53:58.675Z,13.40
2018-08-18T03:54:58.611Z,13.70
2018-08-18T03:55:58.635Z,14.90
2018-08-18T03:56:58.742Z,13.80
2018-08-18T03:57:58.809Z,14.30
2018-08-18T03:58:58.651Z,13.30
2018-08-18T03:59:58.639Z,12.90
2018-08-18T04:00:58.672Z,13.00
2018-08-18T04:01:58.636Z,12.20
2018-08-18T04:02:58.657Z,13.70
2018-08-18T04:03:58.677Z,13.20
2018-08-18T04:04:58.649Z,13.80
2018-08-18T04:05:58.668Z,13.20
2018-08-18T04:06:58.645Z,13.40
2018-08-18T04:07:58.675Z,13.30
2018-08-18T04:08:58.966Z,14.10
2018-08-18T04:09:58.626Z,13.70
2018-08-18T04:10:58.619Z,14.90
2018-08-18T04:11:58.620Z,14.30
2018-08-18T04:12:58.642Z,14.70
2018-08-18T04:13:58.632Z,15.70
2018-08-18T04:14:58.646Z,15.20
2018-08-18T04:15:58.667Z,15.70
2018-08-18T04:16:58.669Z,15.50
2018-08-18T04:17:58.649Z,15.40
2018-08-18T04:18:58.684Z,16.20
2018-08-18T04:19:58.668Z,16.60
2018-08-18T04:20:58.645Z,16.40
2018-08-18T04:21:58.668Z,14.90
2018-08-18T04:22:58.648Z,15.40
2018-08-18T04:23:58.647Z,14.60
2018-08-18T04:24:58.631Z,14.70
2018-08-18T04:25:58.637Z,14.80
2018-08-18T04:26:58.628Z,14.50
2018-08-18T04:27:58.699Z,16.10
2018-08-18T04:28:58.733Z,14.80
2018-08-18T04:29:58.735Z,15.40
2018-08-18T04:30:58.660Z,16.00
2018-08-18T04:31:58.694Z,16.60
2018-08-18T04:32:58.654Z,15.40
2018-08-18T04:33:58.660Z,17.00
2018-08-18T04:34:58.658Z,16.40
2018-08-18T04:35:58.687Z,15.40
2018-08-18T04:36:58.708Z,15.60
2018-08-18T04:37:58.670Z,15.50
2018-08-18T04:38:58.717Z,16.50
2018-08-18T04:39:58.658Z,15.90
2018-08-18T04:40:58.705Z,16.10
2018-08-18T04:41:58.714Z,15.90
2018-08-18T04:42:58.718Z,16.40
2018-08-18T04:43:58.770Z,15.80
2018-08-18T04:44:58.689Z,15.30
2018-08-18T04:45:58.714Z,15.00
2018-08-18T04:46:58.742Z,16.10
2018-08-18T04:47:58.789Z,15.60
2018-08-18T04:48:58.747Z,16.10
2018-08-18T04:49:58.692Z,16.60
2018-08-18T04:50:58.777Z,16.10
2018-08-18T04:51:58.724Z,16.20
2018-08-18T04:52:58.720Z,16.90
2018-08-18T04:53:58.702Z,17.40
2018-08-18T04:54:58.725Z,17.40
2018-08-18T04:55:58.772Z,17.60
2018-08-18T04:56:58.813Z,16.90
2018-08-18T04:57:58.726Z,16.50
2018-08-18T04:58:58.733Z,16.50
2018-08-18T04:59:58.745Z,16.00
2018-08-18T05:00:58.845Z,16.50
2018-08-18T05:01:58.752Z,17.40
2018-08-18T05:02:58.758Z,16.30
2018-08-18T05:03:58.786Z,17.50
2018-08-18T05:06:31.928Z,18.10
2018-08-18T05:24:32.196Z,15.40
2018-08-18T05:25:32.787Z,14.80
2018-08-18T05:26:33.273Z,15.50
2018-08-18T05:27:33.786Z,14.80
2018-08-18T05:28:33.291Z,13.50
2018-08-18T05:29:32.290Z,14.70
2018-08-18T05:30:31.189Z,14.70
2018-08-18T05:31:31.776Z,12.80
2018-08-18T05:32:31.168Z,13.70
2018-08-18T05:33:31.187Z,14.00
2018-08-18T05:34:31.167Z,14.80
2018-08-18T05:35:31.776Z,12.80
2018-08-18T05:36:31.790Z,11.60
2018-08-18T05:37:31.165Z,10.80
2018-08-18T05:38:32.788Z,10.60
2018-08-18T05:39:34.792Z,10.80
2018-08-18T05:40:31.171Z,10.70
2018-08-18T05:41:33.288Z,10.90
2018-08-18T05:42:32.811Z,11.30
2018-08-18T05:43:32.330Z,12.10
2018-08-18T05:44:32.297Z,10.80
2018-08-18T05:45:34.281Z,11.00
2018-08-18T05:46:33.787Z,11.40
2018-08-18T05:47:33.325Z,10.80
2018-08-18T05:48:32.785Z,11.10
2018-08-18T05:49:33.782Z,11.00
2018-08-18T05:50:33.287Z,10.10
2018-08-18T05:51:32.349Z,10.70
2018-08-18T05:52:32.296Z,10.50
2018-08-18T05:53:32.792Z,10.30
2018-08-18T05:54:32.957Z,9.90
2018-08-18T05:55:32.799Z,10.30
2018-08-18T05:56:32.821Z,10.10
2018-08-18T05:57:33.310Z,9.70
2018-08-18T05:58:31.419Z,10.20
2018-08-18T05:59:31.234Z,10.20
2018-08-18T06:00:32.873Z,9.80
2018-08-18T06:01:33.793Z,9.60
2018-08-18T06:02:32.931Z,10.00
2018-08-18T06:03:31.266Z,9.70
2018-08-18T06:04:31.350Z,9.40
2018-08-18T06:05:31.260Z,10.50
2018-08-18T06:06:31.256Z,10.20
2018-08-18T06:07:31.489Z,9.80
2018-08-18T06:08:31.298Z,10.40
2018-08-18T06:09:31.358Z,9.80
2018-08-18T06:10:31.964Z,9.50
2018-08-18T06:11:31.308Z,9.60
2018-08-18T06:12:31.306Z,9.70
2018-08-18T06:13:31.300Z,9.30
2018-08-18T06:14:31.345Z,9.10
2018-08-18T06:15:31.327Z,8.80
2018-08-18T06:16:31.371Z,9.40
2018-08-18T06:17:31.309Z,8.70
2018-08-18T06:18:31.315Z,8.50
2018-08-18T06:19:31.358Z,8.50
2018-08-18T06:20:31.366Z,8.60
2018-08-18T06:21:32.942Z,8.60
2018-08-18T06:22:31.346Z,9.10
2018-08-18T06:23:31.342Z,8.70
2018-08-18T06:24:31.356Z,8.90
2018-08-18T06:25:31.343Z,9.40
2018-08-18T06:26:31.364Z,9.60
2018-08-18T06:27:31.364Z,9.10
2018-08-18T06:28:31.333Z,9.60
2018-08-18T06:29:31.383Z,9.50
2018-08-18T06:30:31.373Z,9.30
2018-08-18T06:31:33.932Z,9.40
2018-08-18T06:32:31.439Z,8.70
2018-08-18T06:33:31.435Z,9.00
2018-08-18T06:34:32.935Z,8.50
2018-08-18T06:35:31.433Z,8.60
2018-08-18T06:36:31.443Z,8.60
2018-08-18T06:37:31.408Z,8.30
2018-08-18T06:38:31.423Z,8.60
2018-08-18T06:39:31.521Z,8.80
2018-08-18T06:40:31.462Z,8.30
2018-08-18T06:41:31.531Z,8.70
2018-08-18T06:42:31.429Z,8.00
2018-08-18T06:43:31.525Z,7.70
2018-08-18T06:44:31.501Z,7.70
2018-08-18T06:45:31.470Z,8.70
2018-08-18T06:46:31.583Z,8.60
2018-08-18T06:47:31.501Z,8.60
2018-08-18T06:48:31.519Z,8.60
2018-08-18T06:49:31.452Z,8.80
2018-08-18T06:50:31.493Z,10.00
2018-08-18T06:51:31.509Z,9.20
2018-08-18T06:52:31.502Z,9.20
2018-08-18T06:53:31.500Z,8.80
2018-08-18T06:54:31.625Z,8.70
2018-08-18T06:55:31.561Z,9.30
2018-08-18T06:56:31.615Z,8.90
2018-08-18T06:57:31.551Z,9.20
2018-08-18T06:58:31.591Z,11.90
2018-08-18T06:59:31.584Z,11.30
2018-08-18T07:00:31.593Z,9.30
2018-08-18T07:01:31.594Z,9.00
2018-08-18T07:02:31.633Z,10.50
2018-08-18T07:03:31.658Z,10.50
2018-08-18T07:04:31.627Z,10.90
2018-08-18T07:05:31.616Z,10.00
2018-08-18T07:06:31.662Z,10.00
2018-08-18T07:07:31.745Z,9.70
2018-08-18T07:08:31.673Z,9.20
2018-08-18T07:09:31.647Z,9.40
2018-08-18T07:10:31.690Z,9.70
2018-08-18T07:11:31.691Z,11.00
2018-08-18T07:12:31.683Z,10.30
2018-08-18T07:13:31.689Z,9.70
2018-08-18T07:14:31.692Z,9.90
2018-08-18T07:15:31.778Z,9.30
2018-08-18T07:16:31.724Z,9.70
2018-08-18T07:17:31.821Z,9.00
2018-08-18T07:18:31.734Z,9.10
2018-08-18T07:19:31.790Z,9.30
2018-08-18T07:20:31.756Z,9.10
2018-08-18T07:21:31.749Z,8.70
2018-08-18T07:22:31.744Z,9.50
2018-08-18T07:23:33.449Z,9.00
2018-08-18T07:24:31.789Z,8.50
2018-08-18T07:25:31.800Z,8.30
2018-08-18T07:26:31.841Z,8.20
2018-08-18T07:27:32.342Z,8.70
2018-08-18T07:28:33.475Z,9.30
2018-08-18T07:29:31.846Z,7.70
2018-08-18T07:30:31.861Z,8.00
2018-08-18T07:31:31.909Z,8.20
2018-08-18T07:32:31.976Z,7.70
2018-08-18T07:33:31.923Z,7.90
2018-08-18T07:34:31.858Z,7.40
2018-08-18T07:35:31.923Z,7.20
2018-08-18T07:36:32.012Z,7.20
2018-08-18T07:37:32.125Z,7.30
2018-08-18T07:38:32.044Z,7.30
2018-08-18T07:39:31.979Z,7.50
2018-08-18T07:40:31.986Z,6.90
2018-08-18T07:41:31.982Z,7.00
2018-08-18T07:42:31.977Z,7.70
2018-08-18T07:43:31.984Z,6.90
2018-08-18T07:44:32.016Z,6.90
2018-08-18T07:45:32.006Z,6.60
2018-08-18T07:46:32.087Z,6.60
2018-08-18T07:47:32.045Z,6.40
2018-08-18T07:48:32.165Z,6.40
2018-08-18T07:49:32.070Z,6.20
2018-08-18T07:50:32.103Z,6.50
2018-08-18T07:51:32.089Z,6.30
2018-08-18T07:52:32.091Z,6.60
2018-08-18T07:53:32.130Z,6.00
2018-08-18T07:54:32.165Z,5.80
2018-08-18T07:55:32.134Z,5.60
2018-08-18T07:56:32.118Z,5.90
2018-08-18T07:57:32.152Z,5.20
2018-08-18T07:58:32.169Z,6.10
2018-08-18T07:59:32.142Z,5.40
2018-08-18T08:00:32.199Z,6.00
2018-08-18T08:01:32.198Z,5.40
2018-08-18T08:02:32.200Z,5.60
2018-08-18T08:03:32.231Z,5.60
2018-08-18T08:04:32.248Z,5.20
2018-08-18T08:05:32.372Z,5.30
2018-08-18T08:06:32.276Z,5.20
2018-08-18T08:07:32.292Z,5.00
2018-08-18T08:08:32.373Z,4.80
2018-08-18T08:09:32.302Z,4.40
2018-08-18T08:10:32.323Z,4.90
2018-08-18T08:11:32.362Z,5.00
2018-08-18T08:12:32.395Z,4.50
2018-08-18T08:13:32.324Z,5.10
2018-08-18T08:14:32.422Z,4.60
2018-08-18T08:15:32.445Z,5.10
2018-08-18T08:16:32.398Z,4.70
2018-08-18T08:17:32.415Z,5.20
2018-08-18T08:18:32.423Z,4.60
2018-08-18T08:19:32.444Z,4.30
2018-08-18T08:20:32.450Z,4.40
2018-08-18T08:21:32.461Z,4.10
2018-08-18T08:22:32.476Z,4.80
2018-08-18T08:23:32.502Z,4.60
2018-08-18T08:24:32.529Z,4.40
2018-08-18T08:25:32.523Z,4.10
2018-08-18T08:26:32.535Z,4.10
2018-08-18T08:27:32.534Z,4.50
2018-08-18T08:28:32.545Z,4.30
2018-08-18T08:29:32.591Z,4.30
2018-08-18T08:30:32.596Z,4.40
2018-08-18T08:31:32.668Z,4.60
2018-08-18T08:32:32.718Z,4.80
2018-08-18T08:33:32.687Z,4.80
2018-08-18T08:34:32.641Z,4.30
2018-08-18T08:35:32.612Z,4.20
2018-08-18T08:36:32.671Z,4.40
2018-08-18T08:37:32.672Z,4.20
2018-08-18T08:38:32.678Z,4.20
2018-08-18T08:39:32.710Z,4.30
2018-08-18T08:40:32.714Z,3.90
2018-08-18T08:41:32.733Z,4.10
2018-08-18T08:42:32.747Z,4.80
2018-08-18T08:43:32.875Z,4.80
2018-08-18T08:44:32.888Z,4.50
2018-08-18T08:45:33.396Z,4.40
2018-08-18T08:46:32.854Z,4.70
2018-08-18T08:47:32.941Z,4.60
2018-08-18T08:48:32.934Z,4.50
2018-08-18T08:49:32.910Z,4.90
2018-08-18T08:50:32.900Z,4.10
2018-08-18T08:51:32.900Z,3.90
2018-08-18T08:52:34.516Z,4.00
2018-08-18T08:53:32.926Z,3.40
2018-08-18T08:54:32.993Z,6.00
2018-08-18T08:55:33.003Z,4.70
2018-08-18T08:56:32.995Z,4.00
2018-08-18T08:57:35.681Z,4.00
2018-08-18T08:58:33.076Z,3.90
2018-08-18T08:59:33.056Z,3.40
2018-08-18T09:00:33.047Z,3.60
2018-08-18T09:01:36.144Z,4.30
2018-08-18T09:02:35.059Z,3.80
2018-08-18T09:03:33.056Z,4.60
2018-08-18T09:04:33.916Z,4.10
2018-08-18T09:05:33.134Z,4.40
2018-08-18T09:06:33.112Z,3.80
2018-08-18T09:07:33.129Z,3.80
2018-08-18T09:08:36.014Z,3.80
2018-08-18T09:09:33.155Z,4.00
2018-08-18T09:10:33.208Z,4.00
2018-08-18T09:11:33.230Z,3.90
2018-08-18T09:12:33.190Z,3.60
2018-08-18T09:13:33.192Z,3.10
2018-08-18T09:14:33.238Z,3.10
2018-08-18T09:15:33.322Z,3.00
2018-08-18T09:16:33.310Z,3.10
2018-08-18T09:17:33.391Z,3.30
2018-08-18T09:18:33.295Z,3.20
2018-08-18T09:19:33.419Z,3.40
2018-08-18T09:20:33.453Z,3.20
2018-08-18T09:21:33.371Z,3.30
2018-08-18T09:22:33.366Z,3.70
2018-08-18T09:23:33.435Z,3.50
2018-08-18T09:24:33.405Z,3.80
2018-08-18T09:25:33.454Z,3.90
2018-08-18T09:26:33.505Z,3.90
2018-08-18T09:27:33.919Z,3.60
2018-08-18T09:28:33.502Z,3.50
2018-08-18T09:29:33.492Z,3.40
2018-08-18T09:30:33.548Z,3.40
2018-08-18T09:31:33.507Z,3.40
2018-08-18T09:32:33.637Z,3.90
2018-08-18T09:33:33.726Z,3.30
2018-08-18T09:34:35.549Z,3.00
2018-08-18T09:35:33.624Z,3.50
2018-08-18T09:36:33.651Z,3.30
2018-08-18T09:37:33.789Z,4.10
2018-08-18T09:38:33.736Z,4.20
2018-08-18T09:39:33.653Z,3.60
2018-08-18T09:40:33.688Z,3.80
2018-08-18T09:41:33.736Z,3.70
2018-08-18T09:42:33.744Z,3.60
2018-08-18T09:43:33.684Z,3.70
2018-08-18T09:44:33.753Z,3.60
2018-08-18T09:45:33.853Z,3.80
2018-08-18T09:46:33.812Z,3.70
2018-08-18T09:47:33.799Z,4.50
2018-08-18T09:48:33.843Z,3.90
2018-08-18T09:49:33.847Z,3.10
2018-08-18T09:50:33.939Z,2.80
2018-08-18T09:51:33.881Z,3.20
2018-08-18T09:52:33.997Z,3.50
2018-08-18T09:53:33.927Z,3.40
2018-08-18T09:54:33.918Z,3.60
2018-08-18T09:55:33.980Z,3.50
2018-08-18T09:56:33.965Z,3.70
2018-08-18T09:57:34.041Z,3.60
2018-08-18T09:58:34.006Z,3.70
2018-08-18T09:59:34.229Z,3.60
2018-08-18T10:00:34.045Z,4.00
2018-08-18T10:01:34.096Z,3.80
2018-08-18T10:02:34.076Z,4.30
2018-08-18T10:03:34.106Z,3.70
2018-08-18T10:04:37.081Z,3.80
2018-08-18T10:05:34.151Z,4.40
2018-08-18T10:06:34.242Z,3.70
2018-08-18T10:07:34.179Z,3.80
2018-08-18T10:08:34.208Z,3.70
2018-08-18T10:09:34.241Z,4.10
2018-08-18T10:10:34.243Z,3.80
2018-08-18T10:11:34.232Z,5.00
2018-08-18T10:12:34.273Z,4.80
2018-08-18T10:13:34.380Z,3.80
2018-08-18T10:14:34.289Z,4.20
2018-08-18T10:15:34.296Z,4.60
2018-08-18T10:16:34.366Z,3.70
2018-08-18T10:17:34.347Z,3.60
2018-08-18T10:18:34.337Z,4.80
2018-08-18T10:19:34.526Z,4.70
2018-08-18T10:20:34.508Z,4.70
2018-08-18T10:21:34.441Z,5.10
2018-08-18T10:22:34.466Z,5.20
2018-08-18T10:23:34.465Z,5.00
2018-08-18T10:24:34.508Z,4.40
2018-08-18T10:25:34.518Z,5.50
2018-08-18T10:26:34.490Z,5.90
2018-08-18T10:27:34.544Z,5.40
2018-08-18T10:28:34.570Z,6.30
2018-08-18T10:29:35.458Z,5.70
2018-08-18T10:30:34.630Z,4.20
2018-08-18T10:31:36.612Z,4.50
2018-08-18T10:32:34.647Z,4.60
2018-08-18T10:33:34.597Z,4.60
2018-08-18T10:34:34.638Z,4.80
2018-08-18T10:35:34.671Z,5.20
2018-08-18T10:36:34.694Z,5.30
2018-08-18T10:37:34.716Z,4.70
2018-08-18T10:38:34.739Z,4.70
2018-08-18T10:39:35.077Z,4.40
2018-08-18T10:40:34.903Z,4.40
2018-08-18T10:41:34.795Z,4.40
2018-08-18T10:42:34.793Z,4.50
2018-08-18T10:43:34.824Z,4.00
2018-08-18T10:44:34.827Z,4.10
2018-08-18T10:45:34.829Z,3.90
2018-08-18T10:46:34.905Z,3.90
2018-08-18T10:47:34.901Z,3.60
2018-08-18T10:48:34.948Z,4.30
2018-08-18T10:49:34.976Z,3.80
2018-08-18T10:50:34.903Z,4.10
2018-08-18T10:51:34.940Z,3.70
2018-08-18T10:52:34.960Z,4.10
2018-08-18T10:53:35.016Z,4.10
2018-08-18T10:54:35.009Z,4.90
2018-08-18T10:55:35.025Z,6.20
2018-08-18T10:56:35.062Z,7.30
2018-08-18T10:57:35.085Z,4.80
2018-08-18T10:58:35.148Z,3.90
2018-08-18T10:59:35.187Z,4.00
2018-08-18T11:00:35.165Z,4.70
2018-08-18T11:01:35.135Z,5.90
2018-08-18T11:02:35.186Z,4.30
2018-08-18T11:03:35.160Z,4.70
2018-08-18T11:04:35.235Z,4.50
2018-08-18T11:05:35.184Z,4.30
2018-08-18T11:06:35.205Z,5.00
2018-08-18T11:07:35.249Z,4.20
2018-08-18T11:08:35.222Z,4.70
2018-08-18T11:09:35.342Z,5.40
2018-08-18T11:10:35.272Z,4.70
2018-08-18T11:11:35.991Z,3.90
2018-08-18T11:12:35.301Z,4.50
2018-08-18T11:13:35.344Z,4.20
2018-08-18T11:14:35.340Z,4.50
2018-08-18T11:15:35.349Z,4.40
2018-08-18T11:16:35.409Z,5.00
2018-08-18T11:17:35.418Z,4.70
2018-08-18T11:18:35.380Z,4.70
2018-08-18T11:19:35.420Z,4.30
2018-08-18T11:20:35.399Z,4.50
2018-08-18T11:21:35.513Z,4.80
2018-08-18T11:22:35.448Z,4.00
2018-08-18T11:23:35.476Z,4.80
2018-08-18T11:24:35.476Z,5.00
2018-08-18T11:25:35.474Z,4.40
2018-08-18T11:26:35.475Z,4.60
2018-08-18T11:27:35.458Z,4.30
2018-08-18T11:28:35.557Z,4.90
2018-08-18T11:29:35.473Z,5.10
2018-08-18T11:30:35.520Z,4.40
2018-08-18T11:31:35.595Z,4.00
2018-08-18T11:32:35.583Z,4.60
2018-08-18T11:33:35.568Z,4.20
2018-08-18T11:34:35.584Z,4.00
2018-08-18T11:35:35.612Z,4.70
2018-08-18T11:36:35.564Z,4.80
2018-08-18T11:37:35.619Z,5.40
2018-08-18T11:38:35.613Z,4.20
2018-08-18T11:39:35.641Z,4.60
2018-08-18T11:40:35.637Z,4.20
2018-08-18T11:41:35.703Z,4.80
2018-08-18T11:42:35.648Z,4.50
2018-08-18T11:43:35.684Z,5.00
2018-08-18T11:44:35.656Z,5.40
2018-08-18T11:45:35.679Z,4.10
2018-08-18T11:46:37.613Z,4.70
2018-08-18T11:47:35.766Z,4.70
2018-08-18T11:48:35.809Z,4.20
2018-08-18T11:49:35.786Z,4.30
2018-08-18T11:50:35.738Z,3.70
2018-08-18T11:51:35.772Z,4.20
2018-08-18T11:52:35.733Z,4.10
2018-08-18T11:53:35.770Z,4.90
2018-08-18T11:54:35.798Z,4.70
2018-08-18T11:55:35.736Z,3.90
2018-08-18T11:56:35.768Z,3.30
2018-08-18T11:57:35.831Z,3.60
2018-08-18T11:58:35.802Z,3.40
2018-08-18T11:59:35.881Z,4.40
2018-08-18T12:00:36.521Z,4.30
2018-08-18T12:01:35.806Z,3.50
2018-08-18T12:02:35.809Z,4.30
2018-08-18T12:03:35.885Z,4.30
2018-08-18T12:04:35.836Z,3.90
2018-08-18T12:05:35.843Z,3.20
2018-08-18T12:06:35.950Z,4.20
2018-08-18T12:07:36.029Z,4.40
2018-08-18T12:08:35.961Z,4.40
2018-08-18T12:09:35.897Z,3.80
2018-08-18T12:10:35.904Z,3.30
2018-08-18T12:11:35.863Z,3.80
2018-08-18T12:12:36.038Z,4.20
2018-08-18T12:13:35.937Z,4.30
2018-08-18T12:14:35.996Z,4.00
2018-08-18T12:15:36.004Z,3.40
2018-08-18T12:16:35.965Z,3.20
2018-08-18T12:17:35.948Z,3.40
2018-08-18T12:18:35.975Z,3.40
2018-08-18T12:19:35.935Z,3.70
2018-08-18T12:20:35.981Z,4.10
2018-08-18T12:21:36.027Z,4.10
2018-08-18T12:22:36.009Z,4.00
2018-08-18T12:23:36.026Z,4.40
2018-08-18T12:24:36.532Z,4.30
2018-08-18T12:25:36.046Z,4.10
2018-08-18T12:26:36.021Z,4.10
2018-08-18T12:27:36.044Z,3.90
2018-08-18T12:28:36.094Z,4.70
2018-08-18T12:29:36.117Z,4.40
2018-08-18T12:30:36.001Z,3.70
2018-08-18T12:31:36.060Z,3.50
2018-08-18T12:32:36.130Z,3.20
2018-08-18T12:33:36.350Z,3.60
2018-08-18T12:34:36.038Z,3.30
2018-08-18T12:35:36.050Z,3.90
2018-08-18T12:36:36.140Z,3.10
2018-08-18T12:37:36.107Z,3.20
2018-08-18T12:38:36.082Z,3.00
2018-08-18T12:39:36.086Z,3.30
2018-08-18T12:40:36.081Z,4.20
2018-08-18T12:41:36.079Z,4.00
2018-08-18T12:42:36.542Z,3.30
2018-08-18T12:43:36.241Z,3.10
2018-08-18T12:44:36.186Z,4.60
2018-08-18T12:45:36.132Z,4.00
2018-08-18T12:46:36.111Z,4.10
2018-08-18T12:47:37.042Z,3.80
2018-08-18T12:48:36.137Z,3.30
2018-08-18T12:49:36.248Z,3.30
2018-08-18T12:50:36.200Z,3.70
2018-08-18T12:51:36.230Z,3.90
2018-08-18T12:52:38.105Z,3.70
2018-08-18T12:53:36.181Z,3.30
2018-08-18T12:54:36.174Z,3.10
2018-08-18T12:55:36.200Z,3.70
2018-08-18T12:56:36.270Z,4.00
2018-08-18T12:57:36.251Z,3.80
2018-08-18T12:58:37.220Z,3.80
2018-08-18T12:59:36.228Z,3.80
2018-08-18T13:00:37.094Z,3.80
2018-08-18T13:01:36.280Z,4.20
2018-08-18T13:02:36.324Z,3.50
2018-08-18T13:03:36.253Z,3.60
2018-08-18T13:04:36.260Z,4.30
2018-08-18T13:05:36.245Z,3.90
2018-08-18T13:06:36.235Z,3.10
2018-08-18T13:07:36.259Z,3.20
2018-08-18T13:08:36.349Z,2.90
2018-08-18T13:09:36.283Z,3.20
2018-08-18T13:10:36.280Z,2.80
2018-08-18T13:11:36.304Z,3.00
2018-08-18T13:12:38.232Z,2.90
2018-08-18T13:13:36.292Z,3.10
2018-08-18T13:14:36.321Z,3.10
2018-08-18T13:15:36.325Z,3.50
2018-08-18T13:16:36.351Z,3.70
2018-08-18T13:17:36.341Z,3.50
2018-08-18T13:18:36.359Z,3.50
2018-08-18T13:19:36.346Z,3.70
2018-08-18T13:20:36.434Z,3.20
2018-08-18T13:21:36.401Z,3.30
2018-08-18T13:22:36.367Z,3.40
2018-08-18T13:23:36.365Z,3.30
2018-08-18T13:24:36.370Z,3.60
2018-08-18T13:25:36.379Z,4.00
2018-08-18T13:26:36.416Z,3.80
2018-08-18T13:27:36.367Z,3.70